createdAt,value
2023-05-11T00:00:02.061Z,101162.44
2023-05-11T00:02:30.070Z,101147.66
2023-05-11T00:04:58.276Z,101147.69
2023-05-11T00:07:25.864Z,101148.53
2023-05-11T00:09:53.103Z,101145.03
2023-05-11T00:12:20.412Z,101146.81
2023-05-11T00:14:47.523Z,101155.53
2023-05-11T00:17:14.643Z,101158.19
2023-05-11T00:19:41.905Z,101158.22
2023-05-11T00:22:09.597Z,101157.31
2023-05-11T00:24:37.031Z,101166.03
2023-05-11T00:27:04.177Z,101164.25
2023-05-11T00:29:31.224Z,101164.25
2023-05-11T00:31:59.117Z,101167.72
2023-05-11T00:34:26.810Z,101162.50
2023-05-11T00:36:53.944Z,101159.84
2023-05-11T00:39:21.155Z,101162.47
2023-05-11T00:41:48.155Z,101160.72
2023-05-11T00:44:15.441Z,101164.22
2023-05-11T00:46:43.250Z,101166.88
2023-05-11T00:49:10.643Z,101166.88
2023-05-11T00:51:38.239Z,101166.00
2023-05-11T00:54:05.389Z,101169.50
2023-05-11T00:56:34.796Z,101157.28
2023-05-11T00:59:01.763Z,101173.03
2023-05-11T01:01:30.566Z,101162.56
2023-05-11T01:03:57.935Z,101173.03
2023-05-11T01:06:44.694Z,101180.88
2023-05-11T01:09:37.443Z,101162.56
2023-05-11T01:12:24.055Z,101163.44
2023-05-11T01:15:02.165Z,101172.16
2023-05-11T01:17:55.966Z,101164.31
2023-05-11T01:20:27.971Z,101162.59
2023-05-11T01:23:08.039Z,101169.53
2023-05-11T01:26:04.390Z,101164.34
2023-05-11T01:29:01.511Z,101170.44
2023-05-11T01:31:32.488Z,101173.03
2023-05-11T01:34:04.834Z,101171.28
2023-05-11T01:36:39.159Z,101174.78
2023-05-11T01:39:10.018Z,101177.41
2023-05-11T01:41:40.206Z,101172.16
2023-05-11T01:44:10.744Z,101173.94
2023-05-11T01:46:38.917Z,101170.47
2023-05-11T01:49:08.116Z,101174.88
2023-05-11T01:51:40.773Z,101178.41
2023-05-11T01:54:09.379Z,101180.19
2023-05-11T01:56:38.575Z,101180.22
2023-05-11T01:59:06.756Z,101185.47
2023-05-11T02:01:36.678Z,101184.59
2023-05-11T02:04:05.007Z,101188.94
2023-05-11T02:06:34.445Z,101190.69
2023-05-11T02:09:03.284Z,101187.25
2023-05-11T02:11:33.486Z,101188.13
2023-05-11T02:14:05.464Z,101187.28
2023-05-11T02:16:34.119Z,101184.75
2023-05-11T02:19:00.968Z,101188.25
2023-05-11T02:21:29.489Z,101199.56
2023-05-11T02:23:57.758Z,101191.69
2023-05-11T02:26:25.006Z,101198.69
2023-05-11T02:28:51.878Z,101192.59
2023-05-11T02:31:25.658Z,101190.84
2023-05-11T02:33:55.267Z,101187.34
2023-05-11T02:36:24.794Z,101201.38
2023-05-11T02:38:58.543Z,101201.31
2023-05-11T02:41:28.876Z,101194.31
2023-05-11T02:44:01.612Z,101194.28
2023-05-11T02:46:34.136Z,101197.78
2023-05-11T02:49:04.956Z,101204.72
2023-05-11T02:51:43.182Z,101204.69
2023-05-11T02:54:12.388Z,101197.75
2023-05-11T02:56:41.145Z,101193.34
2023-05-11T02:59:09.386Z,101190.69
2023-05-11T03:01:38.883Z,101187.25
2023-05-11T03:04:09.096Z,101185.50
2023-05-11T03:06:37.208Z,101185.50
2023-05-11T03:09:04.751Z,101193.31
2023-05-11T03:11:32.670Z,101188.13
2023-05-11T03:14:01.422Z,101185.50
2023-05-11T03:16:29.846Z,101176.75
2023-05-11T03:18:58.002Z,101180.22
2023-05-11T03:21:26.918Z,101169.75
2023-05-11T03:23:54.982Z,101167.19
2023-05-11T03:26:23.719Z,101171.59
2023-05-11T03:28:52.398Z,101166.34
2023-05-11T03:31:20.545Z,101162.84
2023-05-11T03:33:47.805Z,101161.09
2023-05-11T03:36:15.846Z,101155.88
2023-05-11T03:38:46.449Z,101155.91
2023-05-11T03:41:17.087Z,101158.56
2023-05-11T03:43:48.107Z,101161.16
2023-05-11T03:46:20.381Z,101163.84
2023-05-11T03:48:48.499Z,101164.72
2023-05-11T03:51:16.247Z,101164.69
2023-05-11T03:53:43.512Z,101163.84
2023-05-11T03:56:11.541Z,101166.44
2023-05-11T03:58:40.520Z,101155.94
2023-05-11T04:01:10.992Z,101155.91
2023-05-11T04:03:52.126Z,101151.53
2023-05-11T04:06:20.573Z,101157.72
2023-05-11T04:08:48.543Z,101162.09
2023-05-11T04:11:16.649Z,101159.47
2023-05-11T04:13:43.562Z,101157.75
2023-05-11T04:16:10.843Z,101163.00
2023-05-11T04:18:38.280Z,101163.03
2023-05-11T04:21:06.289Z,101166.47
2023-05-11T04:23:33.663Z,101168.19
2023-05-11T04:26:01.511Z,101170.78
2023-05-11T04:28:31.759Z,101178.59
2023-05-11T04:30:59.091Z,101183.81
2023-05-11T04:33:25.879Z,101184.69
2023-05-11T04:35:54.840Z,101190.78
2023-05-11T04:38:22.574Z,101190.75
2023-05-11T04:40:52.902Z,101189.03
2023-05-11T04:43:21.132Z,101191.59
2023-05-11T04:45:49.334Z,101194.19
2023-05-11T04:48:20.313Z,101203.75
2023-05-11T04:50:48.684Z,101191.53
2023-05-11T04:53:16.224Z,101195.06
2023-05-11T04:55:43.407Z,101208.22
2023-05-11T04:58:12.283Z,101201.25
2023-05-11T05:00:39.413Z,101202.97
2023-05-11T05:03:06.581Z,101217.81
2023-05-11T05:05:33.789Z,101212.59
2023-05-11T05:08:01.544Z,101211.69
2023-05-11T05:10:30.133Z,101206.44
2023-05-11T05:12:57.058Z,101216.06
2023-05-11T05:15:24.077Z,101216.06
2023-05-11T05:17:51.036Z,101220.38
2023-05-11T05:20:18.578Z,101225.59
2023-05-11T05:22:46.246Z,101227.34
2023-05-11T05:25:14.024Z,101222.06
2023-05-11T05:27:40.826Z,101225.59
2023-05-11T05:30:08.559Z,101223.75
2023-05-11T05:32:36.091Z,101234.22
2023-05-11T05:35:04.126Z,101224.59
2023-05-11T05:37:31.176Z,101232.38
2023-05-11T05:39:59.995Z,101239.25
2023-05-11T05:42:27.050Z,101241.00
2023-05-11T05:44:54.256Z,101234.00
2023-05-11T05:47:21.460Z,101242.66
2023-05-11T05:49:48.351Z,101240.75
2023-05-11T05:52:15.978Z,101255.53
2023-05-11T05:54:42.881Z,101255.53
2023-05-11T05:57:10.140Z,101250.22
2023-05-11T05:59:38.812Z,101261.53
2023-05-11T06:02:06.476Z,101260.63
2023-05-11T06:04:34.044Z,101262.31
2023-05-11T06:07:01.116Z,101258.84
2023-05-11T06:09:27.961Z,101271.09
2023-05-11T06:11:57.442Z,101267.63
2023-05-11T06:14:25.260Z,101267.47
2023-05-11T06:16:53.692Z,101264.75
2023-05-11T06:19:20.592Z,101269.25
2023-05-11T06:21:49.709Z,101262.25
2023-05-11T06:24:16.693Z,101262.13
2023-05-11T06:26:44.095Z,101257.75
2023-05-11T06:29:11.005Z,101254.22
2023-05-11T06:31:38.160Z,101255.97
2023-05-11T06:34:05.582Z,101256.75
2023-05-11T06:36:33.273Z,101255.81
2023-05-11T06:39:00.924Z,101264.53
2023-05-11T06:41:28.648Z,101258.38
2023-05-11T06:43:55.679Z,101252.25
2023-05-11T06:46:22.659Z,101253.91
2023-05-11T06:48:50.311Z,101257.41
2023-05-11T06:51:18.225Z,101255.53
2023-05-11T06:53:45.833Z,101260.63
2023-05-11T06:56:13.552Z,101267.66
2023-05-11T06:58:40.454Z,101261.50
2023-05-11T07:01:08.490Z,101257.97
2023-05-11T07:03:36.202Z,101263.94
2023-05-11T07:06:03.603Z,101263.84
2023-05-11T07:08:30.721Z,101263.72
2023-05-11T07:10:57.648Z,101258.31
2023-05-11T07:13:24.952Z,101261.72
2023-05-11T07:15:51.641Z,101256.47
2023-05-11T07:18:18.630Z,101261.66
2023-05-11T07:20:49.970Z,101263.34
2023-05-11T07:23:17.245Z,101261.66
2023-05-11T07:25:44.961Z,101263.28
2023-05-11T07:28:12.469Z,101257.13
2023-05-11T07:30:41.535Z,101263.09
2023-05-11T07:33:08.455Z,101267.41
2023-05-11T07:35:35.569Z,101268.41
2023-05-11T07:38:03.789Z,101261.41
2023-05-11T07:40:31.113Z,101269.97
2023-05-11T07:42:57.915Z,101260.19
2023-05-11T07:45:24.603Z,101264.38
2023-05-11T07:47:51.581Z,101259.97
2023-05-11T07:50:19.106Z,101259.81
2023-05-11T07:52:47.419Z,101263.53
2023-05-11T07:55:15.045Z,101259.22
2023-05-11T07:57:42.094Z,101262.66
2023-05-11T08:00:11.142Z,101261.69
2023-05-11T08:02:38.383Z,101258.13
2023-05-11T08:05:05.969Z,101260.81
2023-05-11T08:07:33.197Z,101257.28
2023-05-11T08:10:00.867Z,101251.97
2023-05-11T08:12:28.049Z,101256.94
2023-05-11T08:14:55.444Z,101251.38
2023-05-11T08:17:23.475Z,101250.22
2023-05-11T08:19:51.648Z,101258.81
2023-05-11T08:22:18.359Z,101248.16
2023-05-11T08:24:45.558Z,101256.03
2023-05-11T08:27:13.214Z,101261.50
2023-05-11T08:29:41.136Z,101254.41
2023-05-11T08:32:08.146Z,101262.34
2023-05-11T08:34:35.285Z,101257.13
2023-05-11T08:37:03.112Z,101258.00
2023-05-11T08:39:45.416Z,101258.69
2023-05-11T08:42:18.049Z,101252.44
2023-05-11T08:44:48.071Z,101250.56
2023-05-11T08:47:23.397Z,101253.22
2023-05-11T08:49:53.073Z,101257.44
2023-05-11T08:52:20.510Z,101263.66
2023-05-11T08:54:47.915Z,101263.06
2023-05-11T08:57:15.168Z,101263.19
2023-05-11T08:59:45.158Z,101270.97
2023-05-11T09:02:17.139Z,101264.75
2023-05-11T09:04:47.592Z,101264.69
2023-05-11T09:07:19.115Z,101267.44
2023-05-11T09:09:47.615Z,101266.41
2023-05-11T09:12:16.517Z,101263.88
2023-05-11T09:14:44.088Z,101268.53
2023-05-11T09:17:11.797Z,101273.72
2023-05-11T09:19:57.891Z,101266.88
2023-05-11T09:22:25.184Z,101273.16
2023-05-11T09:24:52.761Z,101270.72
2023-05-11T09:27:21.695Z,101266.34
2023-05-11T09:29:52.947Z,101271.75
2023-05-11T09:32:20.366Z,101276.22
2023-05-11T09:34:47.479Z,101275.34
2023-05-11T09:37:19.247Z,101270.06
2023-05-11T09:42:26.474Z,101268.69
2023-05-11T09:44:54.055Z,101270.31
2023-05-11T09:47:22.738Z,101270.16
2023-05-11T09:49:49.957Z,101270.22
2023-05-11T09:52:19.129Z,101271.09
2023-05-11T09:54:48.152Z,101272.63
2023-05-11T09:57:29.813Z,101270.06
2023-05-11T10:00:00.210Z,101278.09
2023-05-11T10:02:31.079Z,101281.66
2023-05-11T10:05:00.889Z,101283.28
2023-05-11T10:07:35.874Z,101282.34
2023-05-11T10:10:05.491Z,101281.47
2023-05-11T10:12:34.282Z,101277.91
2023-05-11T10:15:05.990Z,101273.53
2023-05-11T10:17:34.243Z,101279.66
2023-05-11T10:20:04.133Z,101277.91
2023-05-11T10:22:31.807Z,101275.16
2023-05-11T10:25:00.048Z,101274.38
2023-05-11T10:27:28.721Z,101268.97
2023-05-11T10:29:58.314Z,101275.91
2023-05-11T10:32:27.358Z,101263.34
2023-05-11T10:34:56.505Z,101271.06
2023-05-11T10:37:24.277Z,101261.28
2023-05-11T10:39:52.291Z,101262.84
2023-05-11T10:42:45.542Z,101262.47
2023-05-11T10:45:51.884Z,101257.28
2023-05-11T10:48:32.834Z,101264.81
2023-05-11T10:51:39.519Z,101264.41
2023-05-11T10:54:30.652Z,101265.72
2023-05-11T10:56:57.422Z,101264.38
2023-05-11T10:59:27.541Z,101258.94
2023-05-11T11:01:59.036Z,101266.47
2023-05-11T11:04:42.382Z,101257.91
2023-05-11T11:07:11.448Z,101263.34
2023-05-11T11:09:52.496Z,101260.00
2023-05-11T11:12:21.025Z,101258.88
2023-05-11T11:14:54.898Z,101261.25
2023-05-11T11:17:25.294Z,101253.44
2023-05-11T11:19:52.210Z,101247.16
2023-05-11T11:22:35.381Z,101248.72
2023-05-11T11:25:07.945Z,101249.63
2023-05-11T11:27:41.217Z,101245.81
2023-05-11T11:30:19.100Z,101252.06
2023-05-11T11:32:50.528Z,101249.81
2023-05-11T11:35:40.095Z,101247.38
2023-05-11T11:38:20.213Z,101250.56
2023-05-11T11:40:55.058Z,101245.94
2023-05-11T11:43:25.226Z,101253.44
2023-05-11T11:45:56.251Z,101248.38
2023-05-11T11:48:29.442Z,101246.59
2023-05-11T11:51:04.387Z,101256.97
2023-05-11T11:53:37.800Z,101246.84
2023-05-11T11:56:07.853Z,101259.00
2023-05-11T11:58:41.186Z,101255.25
2023-05-11T12:01:36.117Z,101252.19
2023-05-11T12:04:08.511Z,101253.66
2023-05-11T12:06:41.025Z,101250.38
2023-05-11T12:09:08.444Z,101257.47
2023-05-11T12:11:35.638Z,101254.13
2023-05-11T12:14:06.328Z,101248.06
2023-05-11T12:16:33.490Z,101243.50
2023-05-11T12:19:02.142Z,101250.28
2023-05-11T12:21:32.291Z,101240.56
2023-05-11T12:24:01.754Z,101241.25
2023-05-11T12:26:29.942Z,101233.34
2023-05-11T12:29:15.085Z,101243.88
2023-05-11T12:31:43.752Z,101243.19
2023-05-11T12:34:16.386Z,101240.56
2023-05-11T12:36:45.175Z,101236.31
2023-05-11T12:39:22.379Z,101229.03
2023-05-11T12:41:50.349Z,101234.31
2023-05-11T12:44:18.482Z,101230.78
2023-05-11T12:46:47.531Z,101217.78
2023-05-11T12:52:05.957Z,101216.63
2023-05-11T12:54:35.558Z,101213.31
2023-05-11T12:57:03.242Z,101214.97
2023-05-11T12:59:31.915Z,101208.81
2023-05-11T13:02:10.741Z,101220.06
2023-05-11T13:04:38.746Z,101217.19
2023-05-11T13:07:07.182Z,101214.28
2023-05-11T13:09:34.626Z,101221.13
2023-05-11T13:12:12.918Z,101217.25
2023-05-11T13:14:40.493Z,101212.06
2023-05-11T13:17:08.059Z,101220.78
2023-05-11T13:19:35.082Z,101212.78
2023-05-11T13:22:04.659Z,101213.13
2023-05-11T13:24:34.431Z,101215.66
2023-05-11T13:27:02.229Z,101212.44
2023-05-11T13:29:29.255Z,101211.31
2023-05-11T13:31:57.326Z,101207.38
2023-05-11T13:34:25.691Z,101204.34
2023-05-11T13:36:52.711Z,101204.53
2023-05-11T13:39:20.810Z,101215.44
2023-05-11T13:41:48.068Z,101210.88
2023-05-11T13:44:15.469Z,101216.94
2023-05-11T13:46:45.009Z,101208.72
2023-05-11T13:49:12.063Z,101207.81
2023-05-11T13:51:39.670Z,101195.56
2023-05-11T13:54:06.907Z,101202.63
2023-05-11T13:56:34.013Z,101201.78
2023-05-11T13:59:00.985Z,101206.47
2023-05-11T14:01:28.400Z,101201.59
2023-05-11T14:03:57.339Z,101208.75
2023-05-11T14:06:25.145Z,101201.03
2023-05-11T14:08:53.724Z,101205.00
2023-05-11T14:11:21.709Z,101199.09
2023-05-11T14:13:49.920Z,101206.16
2023-05-11T14:16:17.535Z,101199.03
2023-05-11T14:18:46.655Z,101202.72
2023-05-11T14:21:14.265Z,101202.72
2023-05-11T14:23:49.940Z,101202.06
2023-05-11T14:26:25.423Z,101203.25
2023-05-11T14:28:52.934Z,101197.91
2023-05-11T14:31:20.400Z,101197.63
2023-05-11T14:33:49.893Z,101202.72
2023-05-11T14:36:17.045Z,101200.84
2023-05-11T14:38:46.006Z,101200.56
2023-05-11T14:41:13.656Z,101199.03
2023-05-11T14:43:41.011Z,101191.03
2023-05-11T14:46:07.941Z,101192.09
2023-05-11T14:48:35.151Z,101185.00
2023-05-11T14:51:03.585Z,101193.78
2023-05-11T14:53:31.086Z,101186.56
2023-05-11T14:55:57.812Z,101193.66
2023-05-11T14:58:25.497Z,101194.59
2023-05-11T15:00:53.604Z,101194.06
2023-05-11T15:03:20.541Z,101187.25
2023-05-11T15:05:52.168Z,101196.16
2023-05-11T15:08:29.535Z,101185.88
2023-05-11T15:11:02.769Z,101196.69
2023-05-11T15:13:29.663Z,101204.16
2023-05-11T15:15:57.097Z,101199.47
2023-05-11T15:18:24.522Z,101208.53
2023-05-11T15:20:52.062Z,101210.81
2023-05-11T15:23:18.966Z,101212.94
2023-05-11T15:25:46.204Z,101212.38
2023-05-11T15:28:13.385Z,101218.97
2023-05-11T15:30:42.121Z,101221.91
2023-05-11T15:33:10.060Z,101222.97
2023-05-11T15:35:38.096Z,101224.88
2023-05-11T15:38:06.597Z,101223.44
2023-05-11T15:40:33.780Z,101227.03
2023-05-11T15:43:00.880Z,101235.88
2023-05-11T15:45:28.817Z,101235.19
2023-05-11T15:47:57.445Z,101227.38
2023-05-11T15:50:24.658Z,101238.63
2023-05-11T15:52:51.756Z,101227.31
2023-05-11T15:55:18.495Z,101229.88
2023-05-11T15:57:46.165Z,101228.94
2023-05-11T16:00:14.052Z,101219.31
2023-05-11T16:02:49.117Z,101226.25
2023-05-11T16:05:16.625Z,101224.31
2023-05-11T16:07:47.702Z,101226.63
2023-05-11T16:10:21.983Z,101217.66
2023-05-11T16:12:49.834Z,101221.91
2023-05-11T16:15:17.034Z,101220.97
2023-05-11T16:17:44.686Z,101216.63
2023-05-11T16:20:12.556Z,101212.09
2023-05-11T16:22:41.116Z,101221.09
2023-05-11T16:25:09.304Z,101216.63
2023-05-11T16:27:36.644Z,101220.94
2023-05-11T16:30:14.252Z,101224.31
2023-05-11T16:32:50.641Z,101220.78
2023-05-11T16:35:18.453Z,101217.31
2023-05-11T16:37:47.693Z,101212.03
2023-05-11T16:40:18.384Z,101216.34
2023-05-11T16:42:46.824Z,101218.97
2023-05-11T16:45:13.944Z,101221.69
2023-05-11T16:47:41.170Z,101222.56
2023-05-11T16:50:09.388Z,101220.06
2023-05-11T16:52:36.422Z,101220.84
2023-05-11T16:55:03.828Z,101215.69
2023-05-11T16:57:31.680Z,101222.09
2023-05-11T16:59:58.550Z,101224.59
2023-05-11T17:02:26.455Z,101224.78
2023-05-11T17:04:53.790Z,101226.44
2023-05-11T17:07:20.990Z,101228.16
2023-05-11T17:09:50.997Z,101223.66
2023-05-11T17:12:17.863Z,101221.16
2023-05-11T17:14:44.926Z,101214.25
2023-05-11T17:17:11.928Z,101224.00
2023-05-11T17:19:38.694Z,101211.84
2023-05-11T17:22:06.871Z,101217.91
2023-05-11T17:24:33.765Z,101212.59
2023-05-11T17:27:00.655Z,101216.03
2023-05-11T17:29:28.820Z,101215.28
2023-05-11T17:31:59.111Z,101216.09
2023-05-11T17:34:28.559Z,101220.53
2023-05-11T17:36:56.908Z,101214.34
2023-05-11T17:39:25.560Z,101230.94
2023-05-11T17:41:53.262Z,101220.44
2023-05-11T17:44:19.950Z,101219.56
2023-05-11T17:46:47.897Z,101228.50
2023-05-11T17:49:15.106Z,101226.81
2023-05-11T17:51:42.649Z,101228.78
2023-05-11T17:54:10.091Z,101237.53
2023-05-11T17:56:38.072Z,101236.59
2023-05-11T17:59:05.251Z,101232.22
2023-05-11T18:01:32.965Z,101233.09
2023-05-11T18:04:00.831Z,101241.00
2023-05-11T18:06:28.852Z,101237.56
2023-05-11T18:08:57.057Z,101244.66
2023-05-11T18:11:24.895Z,101239.47
2023-05-11T18:13:51.948Z,101242.09
2023-05-11T18:16:19.786Z,101240.41
2023-05-11T18:18:47.410Z,101242.25
2023-05-11T18:21:14.694Z,101245.78
2023-05-11T18:23:42.436Z,101245.97
2023-05-11T18:26:12.166Z,101250.41
2023-05-11T18:28:40.009Z,101243.41
2023-05-11T18:31:06.941Z,101243.41
2023-05-11T18:33:33.957Z,101253.91
2023-05-11T18:36:02.086Z,101254.84
2023-05-11T18:38:30.058Z,101250.53
2023-05-11T18:40:57.813Z,101255.84
2023-05-11T18:43:25.518Z,101256.72
2023-05-11T18:45:52.810Z,101256.78
2023-05-11T18:48:21.717Z,101258.66
2023-05-11T18:50:55.639Z,101260.41
2023-05-11T18:53:23.840Z,101261.31
2023-05-11T18:55:53.870Z,101268.41
2023-05-11T18:58:21.023Z,101267.56
2023-05-11T19:00:48.889Z,101265.03
2023-05-11T19:03:18.532Z,101264.19
2023-05-11T19:05:46.012Z,101268.56
2023-05-11T19:08:13.111Z,101266.81
2023-05-11T19:10:40.561Z,101268.63
2023-05-11T19:13:07.810Z,101272.16
2023-05-11T19:15:35.158Z,101276.66
2023-05-11T19:18:04.772Z,101271.41
2023-05-11T19:20:32.232Z,101281.91
2023-05-11T19:22:59.266Z,101272.28
2023-05-11T19:25:26.360Z,101282.78
2023-05-11T19:27:53.680Z,101288.00
2023-05-11T19:30:21.514Z,101286.25
2023-05-11T19:32:49.109Z,101280.16
2023-05-11T19:35:16.854Z,101286.34
2023-05-11T19:37:46.200Z,101283.72
2023-05-11T19:42:47.540Z,101297.00
2023-05-11T19:45:15.910Z,101301.38
2023-05-11T19:47:42.663Z,101290.03
2023-05-11T19:50:17.907Z,101290.88
2023-05-11T19:52:46.413Z,101297.97
2023-05-11T19:55:13.668Z,101295.34
2023-05-11T19:57:41.059Z,101291.84
2023-05-11T20:00:12.096Z,101298.84
2023-05-11T20:02:38.978Z,101298.84
2023-05-11T20:05:06.954Z,101301.50
2023-05-11T20:07:34.516Z,101298.94
2023-05-11T20:10:02.846Z,101298.88
2023-05-11T20:12:29.696Z,101305.06
2023-05-11T20:14:57.943Z,101304.19
2023-05-11T20:17:26.019Z,101296.34
2023-05-11T20:19:53.025Z,101296.34
2023-05-11T20:22:19.947Z,101300.78
2023-05-11T20:24:47.471Z,101302.53
2023-05-11T20:27:14.578Z,101296.38
2023-05-11T20:29:45.405Z,101307.78
2023-05-11T20:32:12.655Z,101301.66
2023-05-11T20:34:39.439Z,101299.91
2023-05-11T20:37:06.761Z,101295.53
2023-05-11T20:39:34.009Z,101291.16
2023-05-11T20:42:04.491Z,101293.84
2023-05-11T20:44:34.166Z,101291.22
2023-05-11T20:47:01.161Z,101290.34
2023-05-11T20:49:38.249Z,101294.72
2023-05-11T20:52:08.246Z,101288.69
2023-05-11T20:54:35.756Z,101297.44
2023-05-11T20:57:04.361Z,101293.94
2023-05-11T21:02:02.781Z,101291.34
2023-05-11T21:04:31.317Z,101287.06
2023-05-11T21:06:58.718Z,101286.25
2023-05-11T21:09:26.655Z,101283.56
2023-05-11T21:11:54.493Z,101278.31
2023-05-11T21:14:21.327Z,101286.25
2023-05-11T21:16:48.819Z,101294.13
2023-05-11T21:19:16.717Z,101285.38
2023-05-11T21:21:44.300Z,101278.38
2023-05-11T21:24:14.065Z,101274.88
2023-05-11T21:26:41.942Z,101276.63
2023-05-11T21:29:12.115Z,101277.53
2023-05-11T21:31:39.028Z,101274.03
2023-05-11T21:34:06.469Z,101277.53
2023-05-11T21:36:33.823Z,101269.78
2023-05-11T21:39:01.052Z,101282.00
2023-05-11T21:41:30.710Z,101275.03
2023-05-11T21:44:01.027Z,101275.03
2023-05-11T21:46:27.966Z,101272.38
2023-05-11T21:48:54.748Z,101271.50
2023-05-11T21:51:22.072Z,101274.16
2023-05-11T21:53:48.934Z,101275.03
2023-05-11T21:56:15.977Z,101263.66
2023-05-11T21:58:43.332Z,101274.22
2023-05-11T22:01:12.986Z,101278.59
2023-05-11T22:03:46.872Z,101270.72
2023-05-11T22:06:14.085Z,101268.09
2023-05-11T22:08:44.833Z,101262.88
2023-05-11T22:11:14.836Z,101263.75
2023-05-11T22:13:43.180Z,101268.97
2023-05-11T22:16:09.831Z,101264.63
2023-05-11T22:18:38.475Z,101263.75
2023-05-11T22:21:05.625Z,101259.44
2023-05-11T22:23:32.925Z,101259.44
2023-05-11T22:26:01.025Z,101262.94
2023-05-11T22:28:28.440Z,101255.88
2023-05-11T22:30:58.801Z,101255.84
2023-05-11T22:33:35.491Z,101254.19
2023-05-11T22:36:02.545Z,101264.72
2023-05-11T22:38:34.181Z,101251.66
2023-05-11T22:41:01.589Z,101249.91
2023-05-11T22:43:28.653Z,101254.22
2023-05-11T22:45:55.999Z,101252.50
2023-05-11T22:48:23.037Z,101254.34
2023-05-11T22:50:50.906Z,101257.84
2023-05-11T22:53:19.841Z,101252.56
2023-05-11T22:55:49.690Z,101250.91
2023-05-11T22:58:17.913Z,101250.91
2023-05-11T23:00:47.477Z,101245.59
2023-05-11T23:03:14.376Z,101250.03
2023-05-11T23:05:45.245Z,101247.44
2023-05-11T23:08:12.474Z,101240.44
2023-05-11T23:10:40.802Z,101246.56
2023-05-11T23:13:10.878Z,101243.91
2023-05-11T23:15:37.926Z,101243.91
2023-05-11T23:18:05.120Z,101232.53
2023-05-11T23:20:32.193Z,101230.81
2023-05-11T23:23:00.117Z,101231.72
2023-05-11T23:25:28.203Z,101226.44
2023-05-11T23:27:55.234Z,101229.91
2023-05-11T23:30:22.513Z,101224.66
2023-05-11T23:32:49.643Z,101221.22
2023-05-11T23:35:16.713Z,101223.00
2023-05-11T23:37:46.906Z,101212.63
2023-05-11T23:40:13.895Z,101207.44
2023-05-11T23:42:40.688Z,101207.44
2023-05-11T23:45:08.761Z,101207.44
2023-05-11T23:47:36.471Z,101210.09
2023-05-11T23:50:04.081Z,101201.34
2023-05-11T23:52:31.775Z,101198.75
2023-05-11T23:54:58.964Z,101203.19
2023-05-11T23:57:26.006Z,101193.53
2023-05-11T23:59:53.888Z,101195.31
